sensor_id;sensor_type;location;lat;lon;timestamp;P1;durP1;ratioP1;P2;durP2;ratioP2
16977;SDS011;8605;52.548;4.918;2023-04-07T00:00:50;42.03;;;15.10;;
16977;SDS011;8605;52.548;4.918;2023-04-07T00:05:53;46.23;;;15.50;;
16977;SDS011;8605;52.548;4.918;2023-04-07T00:10:56;33.73;;;14.67;;
16977;SDS011;8605;52.548;4.918;2023-04-07T00:16:00;32.75;;;14.85;;
16977;SDS011;8605;52.548;4.918;2023-04-07T00:21:03;32.92;;;14.38;;
16977;SDS011;8605;52.548;4.918;2023-04-07T00:26:06;31.77;;;13.37;;
16977;SDS011;8605;52.548;4.918;2023-04-07T00:31:11;34.40;;;12.63;;
16977;SDS011;8605;52.548;4.918;2023-04-07T00:36:14;33.58;;;13.10;;
16977;SDS011;8605;52.548;4.918;2023-04-07T00:41:17;29.38;;;11.38;;
16977;SDS011;8605;52.548;4.918;2023-04-07T00:46:21;26.58;;;10.05;;
16977;SDS011;8605;52.548;4.918;2023-04-07T00:51:25;29.80;;;11.02;;
16977;SDS011;8605;52.548;4.918;2023-04-07T00:56:28;30.35;;;13.20;;
16977;SDS011;8605;52.548;4.918;2023-04-07T01:01:34;34.57;;;13.13;;
16977;SDS011;8605;52.548;4.918;2023-04-07T01:06:43;38.47;;;14.00;;
16977;SDS011;8605;52.548;4.918;2023-04-07T01:11:54;32.60;;;14.77;;
16977;SDS011;8605;52.548;4.918;2023-04-07T01:17:03;42.08;;;17.75;;
16977;SDS011;8605;52.548;4.918;2023-04-07T01:22:10;52.15;;;19.20;;
16977;SDS011;8605;52.548;4.918;2023-04-07T01:27:17;47.53;;;18.10;;
16977;SDS011;8605;52.548;4.918;2023-04-07T01:32:24;40.85;;;18.35;;
16977;SDS011;8605;52.548;4.918;2023-04-07T01:37:28;50.38;;;19.45;;
16977;SDS011;8605;52.548;4.918;2023-04-07T01:42:31;41.72;;;17.08;;
16977;SDS011;8605;52.548;4.918;2023-04-07T01:47:36;41.50;;;16.38;;
16977;SDS011;8605;52.548;4.918;2023-04-07T01:52:39;42.92;;;16.65;;
16977;SDS011;8605;52.548;4.918;2023-04-07T01:57:42;39.65;;;16.15;;
16977;SDS011;8605;52.548;4.918;2023-04-07T02:02:54;37.22;;;14.20;;
16977;SDS011;8605;52.548;4.918;2023-04-07T02:08:01;34.25;;;13.60;;
16977;SDS011;8605;52.548;4.918;2023-04-07T02:13:09;32.37;;;14.53;;
16977;SDS011;8605;52.548;4.918;2023-04-07T02:18:16;38.27;;;14.53;;
16977;SDS011;8605;52.548;4.918;2023-04-07T02:23:20;33.50;;;12.88;;
16977;SDS011;8605;52.548;4.918;2023-04-07T02:28:23;40.30;;;12.38;;
16977;SDS011;8605;52.548;4.918;2023-04-07T02:33:27;43.30;;;17.50;;
16977;SDS011;8605;52.548;4.918;2023-04-07T02:38:30;44.47;;;18.43;;
16977;SDS011;8605;52.548;4.918;2023-04-07T02:43:33;41.60;;;16.50;;
16977;SDS011;8605;52.548;4.918;2023-04-07T02:48:37;34.20;;;14.82;;
16977;SDS011;8605;52.548;4.918;2023-04-07T02:53:40;34.20;;;13.90;;
16977;SDS011;8605;52.548;4.918;2023-04-07T02:58:43;37.10;;;14.73;;
16977;SDS011;8605;52.548;4.918;2023-04-07T03:03:48;33.33;;;14.38;;
16977;SDS011;8605;52.548;4.918;2023-04-07T03:08:57;35.78;;;14.18;;
16977;SDS011;8605;52.548;4.918;2023-04-07T03:14:00;33.67;;;13.47;;
16977;SDS011;8605;52.548;4.918;2023-04-07T03:19:06;34.92;;;13.50;;
16977;SDS011;8605;52.548;4.918;2023-04-07T03:24:13;32.10;;;12.70;;
16977;SDS011;8605;52.548;4.918;2023-04-07T03:29:16;33.30;;;11.53;;
16977;SDS011;8605;52.548;4.918;2023-04-07T03:34:21;28.88;;;12.07;;
16977;SDS011;8605;52.548;4.918;2023-04-07T03:39:24;25.27;;;10.32;;
16977;SDS011;8605;52.548;4.918;2023-04-07T03:44:31;26.02;;;10.73;;
16977;SDS011;8605;52.548;4.918;2023-04-07T03:49:36;24.67;;;9.23;;
16977;SDS011;8605;52.548;4.918;2023-04-07T03:54:39;22.08;;;9.93;;
16977;SDS011;8605;52.548;4.918;2023-04-07T03:59:43;25.53;;;11.13;;
16977;SDS011;8605;52.548;4.918;2023-04-07T04:04:47;29.58;;;12.07;;
16977;SDS011;8605;52.548;4.918;2023-04-07T04:09:51;37.88;;;11.10;;
16977;SDS011;8605;52.548;4.918;2023-04-07T04:14:55;36.13;;;11.20;;
16977;SDS011;8605;52.548;4.918;2023-04-07T04:19:59;31.33;;;10.25;;
16977;SDS011;8605;52.548;4.918;2023-04-07T04:25:13;25.13;;;9.23;;
16977;SDS011;8605;52.548;4.918;2023-04-07T04:30:21;23.67;;;8.88;;
16977;SDS011;8605;52.548;4.918;2023-04-07T04:35:38;28.42;;;9.40;;
16977;SDS011;8605;52.548;4.918;2023-04-07T04:40:45;28.43;;;11.17;;
16977;SDS011;8605;52.548;4.918;2023-04-07T04:45:51;30.33;;;10.73;;
16977;SDS011;8605;52.548;4.918;2023-04-07T04:50:59;32.73;;;11.03;;
16977;SDS011;8605;52.548;4.918;2023-04-07T04:56:04;30.87;;;10.53;;
16977;SDS011;8605;52.548;4.918;2023-04-07T05:01:12;27.92;;;9.05;;
16977;SDS011;8605;52.548;4.918;2023-04-07T05:06:25;28.70;;;9.60;;
16977;SDS011;8605;52.548;4.918;2023-04-07T05:11:32;27.90;;;8.70;;
16977;SDS011;8605;52.548;4.918;2023-04-07T05:16:35;30.13;;;9.52;;
16977;SDS011;8605;52.548;4.918;2023-04-07T05:21:41;25.02;;;8.25;;
16977;SDS011;8605;52.548;4.918;2023-04-07T05:26:45;18.83;;;7.77;;
16977;SDS011;8605;52.548;4.918;2023-04-07T05:31:48;23.88;;;8.13;;
16977;SDS011;8605;52.548;4.918;2023-04-07T05:36:54;21.63;;;7.83;;
16977;SDS011;8605;52.548;4.918;2023-04-07T05:41:59;26.25;;;8.52;;
16977;SDS011;8605;52.548;4.918;2023-04-07T05:47:02;26.80;;;8.45;;
16977;SDS011;8605;52.548;4.918;2023-04-07T05:52:11;23.30;;;9.18;;
16977;SDS011;8605;52.548;4.918;2023-04-07T05:57:18;25.52;;;9.50;;
16977;SDS011;8605;52.548;4.918;2023-04-07T06:02:22;27.50;;;8.93;;
16977;SDS011;8605;52.548;4.918;2023-04-07T06:07:27;28.45;;;8.63;;
16977;SDS011;8605;52.548;4.918;2023-04-07T06:12:30;21.25;;;8.13;;
16977;SDS011;8605;52.548;4.918;2023-04-07T06:17:33;23.00;;;7.23;;
16977;SDS011;8605;52.548;4.918;2023-04-07T06:22:38;21.27;;;7.38;;
16977;SDS011;8605;52.548;4.918;2023-04-07T06:27:41;22.48;;;7.35;;
16977;SDS011;8605;52.548;4.918;2023-04-07T06:32:44;20.98;;;7.63;;
16977;SDS011;8605;52.548;4.918;2023-04-07T06:37:48;18.92;;;6.97;;
16977;SDS011;8605;52.548;4.918;2023-04-07T06:42:51;15.23;;;6.90;;
16977;SDS011;8605;52.548;4.918;2023-04-07T06:48:04;21.67;;;6.75;;
16977;SDS011;8605;52.548;4.918;2023-04-07T06:53:09;18.75;;;6.57;;
16977;SDS011;8605;52.548;4.918;2023-04-07T06:58:13;17.38;;;7.43;;
16977;SDS011;8605;52.548;4.918;2023-04-07T07:03:16;18.53;;;6.70;;
16977;SDS011;8605;52.548;4.918;2023-04-07T07:08:20;18.15;;;7.82;;
16977;SDS011;8605;52.548;4.918;2023-04-07T07:13:24;16.83;;;7.03;;
16977;SDS011;8605;52.548;4.918;2023-04-07T07:18:28;15.90;;;7.35;;
16977;SDS011;8605;52.548;4.918;2023-04-07T07:23:33;20.17;;;6.78;;
16977;SDS011;8605;52.548;4.918;2023-04-07T07:28:36;21.75;;;6.28;;
16977;SDS011;8605;52.548;4.918;2023-04-07T07:33:39;20.20;;;7.00;;
16977;SDS011;8605;52.548;4.918;2023-04-07T07:38:46;17.50;;;6.18;;
16977;SDS011;8605;52.548;4.918;2023-04-07T07:43:51;15.00;;;5.88;;
16977;SDS011;8605;52.548;4.918;2023-04-07T07:48:54;18.85;;;6.38;;
16977;SDS011;8605;52.548;4.918;2023-04-07T07:53:59;23.70;;;6.15;;
16977;SDS011;8605;52.548;4.918;2023-04-07T07:59:02;19.38;;;6.63;;
16977;SDS011;8605;52.548;4.918;2023-04-07T08:04:06;17.00;;;5.60;;
16977;SDS011;8605;52.548;4.918;2023-04-07T08:09:11;13.43;;;5.85;;
16977;SDS011;8605;52.548;4.918;2023-04-07T08:14:13;17.30;;;6.80;;
16977;SDS011;8605;52.548;4.918;2023-04-07T08:19:16;14.83;;;5.50;;
16977;SDS011;8605;52.548;4.918;2023-04-07T08:24:21;13.60;;;4.90;;
16977;SDS011;8605;52.548;4.918;2023-04-07T08:29:23;17.88;;;5.75;;
16977;SDS011;8605;52.548;4.918;2023-04-07T08:34:26;18.50;;;6.65;;
16977;SDS011;8605;52.548;4.918;2023-04-07T08:39:30;12.35;;;5.47;;
16977;SDS011;8605;52.548;4.918;2023-04-07T08:44:34;16.33;;;7.15;;
16977;SDS011;8605;52.548;4.918;2023-04-07T08:49:38;20.97;;;6.27;;
16977;SDS011;8605;52.548;4.918;2023-04-07T08:54:44;18.60;;;6.70;;
16977;SDS011;8605;52.548;4.918;2023-04-07T08:59:47;18.45;;;6.88;;
16977;SDS011;8605;52.548;4.918;2023-04-07T09:04:51;16.08;;;6.15;;
16977;SDS011;8605;52.548;4.918;2023-04-07T09:09:55;15.70;;;5.65;;
16977;SDS011;8605;52.548;4.918;2023-04-07T09:14:58;14.83;;;5.10;;
16977;SDS011;8605;52.548;4.918;2023-04-07T09:20:02;13.95;;;5.45;;
16977;SDS011;8605;52.548;4.918;2023-04-07T09:25:14;14.43;;;6.03;;
16977;SDS011;8605;52.548;4.918;2023-04-07T09:30:18;14.23;;;6.45;;
16977;SDS011;8605;52.548;4.918;2023-04-07T09:35:21;20.17;;;7.80;;
16977;SDS011;8605;52.548;4.918;2023-04-07T09:40:26;22.85;;;8.85;;
16977;SDS011;8605;52.548;4.918;2023-04-07T09:45:29;22.67;;;8.82;;
16977;SDS011;8605;52.548;4.918;2023-04-07T09:50:38;23.67;;;9.10;;
16977;SDS011;8605;52.548;4.918;2023-04-07T09:55:48;21.47;;;8.27;;
16977;SDS011;8605;52.548;4.918;2023-04-07T10:00:51;20.20;;;8.60;;
16977;SDS011;8605;52.548;4.918;2023-04-07T10:05:54;26.00;;;10.60;;
16977;SDS011;8605;52.548;4.918;2023-04-07T10:10:58;22.55;;;9.23;;
16977;SDS011;8605;52.548;4.918;2023-04-07T10:16:04;17.80;;;8.25;;
16977;SDS011;8605;52.548;4.918;2023-04-07T10:21:08;22.58;;;8.18;;
16977;SDS011;8605;52.548;4.918;2023-04-07T10:26:17;22.60;;;9.68;;
16977;SDS011;8605;52.548;4.918;2023-04-07T10:31:21;21.10;;;9.20;;
16977;SDS011;8605;52.548;4.918;2023-04-07T10:36:24;20.70;;;8.00;;
16977;SDS011;8605;52.548;4.918;2023-04-07T10:41:34;19.17;;;8.82;;
16977;SDS011;8605;52.548;4.918;2023-04-07T10:52:21;20.77;;;9.03;;
16977;SDS011;8605;52.548;4.918;2023-04-07T10:57:26;27.40;;;12.10;;
16977;SDS011;8605;52.548;4.918;2023-04-07T11:02:30;27.27;;;11.15;;
16977;SDS011;8605;52.548;4.918;2023-04-07T11:07:52;34.77;;;12.60;;
16977;SDS011;8605;52.548;4.918;2023-04-07T11:13:05;37.38;;;13.52;;
16977;SDS011;8605;52.548;4.918;2023-04-07T11:18:09;38.40;;;15.27;;
16977;SDS011;8605;52.548;4.918;2023-04-07T11:23:18;40.73;;;14.90;;
16977;SDS011;8605;52.548;4.918;2023-04-07T11:28:23;41.83;;;16.67;;
16977;SDS011;8605;52.548;4.918;2023-04-07T11:33:26;37.22;;;15.93;;
16977;SDS011;8605;52.548;4.918;2023-04-07T11:38:34;37.47;;;16.58;;
16977;SDS011;8605;52.548;4.918;2023-04-07T11:43:39;40.10;;;16.63;;
16977;SDS011;8605;52.548;4.918;2023-04-07T11:48:43;36.60;;;14.20;;
16977;SDS011;8605;52.548;4.918;2023-04-07T11:53:53;36.50;;;15.40;;
16977;SDS011;8605;52.548;4.918;2023-04-07T11:58:58;29.55;;;13.35;;
16977;SDS011;8605;52.548;4.918;2023-04-07T12:04:03;35.50;;;14.48;;
16977;SDS011;8605;52.548;4.918;2023-04-07T12:09:06;42.23;;;16.87;;
16977;SDS011;8605;52.548;4.918;2023-04-07T12:14:11;38.00;;;15.13;;
16977;SDS011;8605;52.548;4.918;2023-04-07T12:19:14;33.83;;;14.15;;
16977;SDS011;8605;52.548;4.918;2023-04-07T12:24:17;30.80;;;13.23;;
16977;SDS011;8605;52.548;4.918;2023-04-07T12:29:21;32.53;;;13.50;;
16977;SDS011;8605;52.548;4.918;2023-04-07T12:34:24;32.15;;;14.65;;
16977;SDS011;8605;52.548;4.918;2023-04-07T12:39:27;36.17;;;13.95;;
16977;SDS011;8605;52.548;4.918;2023-04-07T12:44:31;32.67;;;14.32;;
16977;SDS011;8605;52.548;4.918;2023-04-07T12:49:34;33.20;;;13.87;;
16977;SDS011;8605;52.548;4.918;2023-04-07T12:54:37;37.33;;;14.73;;
16977;SDS011;8605;52.548;4.918;2023-04-07T12:59:41;36.97;;;15.30;;
16977;SDS011;8605;52.548;4.918;2023-04-07T13:04:45;29.47;;;13.17;;
16977;SDS011;8605;52.548;4.918;2023-04-07T13:09:48;35.10;;;15.00;;
16977;SDS011;8605;52.548;4.918;2023-04-07T13:14:52;37.00;;;15.27;;
16977;SDS011;8605;52.548;4.918;2023-04-07T13:20:01;34.10;;;16.23;;
16977;SDS011;8605;52.548;4.918;2023-04-07T13:25:05;36.40;;;17.63;;
16977;SDS011;8605;52.548;4.918;2023-04-07T13:30:11;45.60;;;18.75;;
16977;SDS011;8605;52.548;4.918;2023-04-07T13:35:14;32.90;;;14.93;;
16977;SDS011;8605;52.548;4.918;2023-04-07T13:40:18;29.80;;;14.00;;
16977;SDS011;8605;52.548;4.918;2023-04-07T13:45:22;33.40;;;14.23;;
16977;SDS011;8605;52.548;4.918;2023-04-07T13:50:25;30.10;;;13.00;;
16977;SDS011;8605;52.548;4.918;2023-04-07T13:55:29;23.20;;;12.20;;
16977;SDS011;8605;52.548;4.918;2023-04-07T14:00:33;23.70;;;12.47;;
16977;SDS011;8605;52.548;4.918;2023-04-07T14:05:38;28.40;;;11.43;;
16977;SDS011;8605;52.548;4.918;2023-04-07T14:10:41;27.42;;;13.05;;
16977;SDS011;8605;52.548;4.918;2023-04-07T14:15:46;28.95;;;15.48;;
16977;SDS011;8605;52.548;4.918;2023-04-07T14:20:49;35.80;;;16.17;;
16977;SDS011;8605;52.548;4.918;2023-04-07T14:25:52;35.17;;;15.40;;
16977;SDS011;8605;52.548;4.918;2023-04-07T14:30:57;29.55;;;13.90;;
16977;SDS011;8605;52.548;4.918;2023-04-07T14:36:00;27.87;;;13.13;;
16977;SDS011;8605;52.548;4.918;2023-04-07T14:41:03;32.28;;;13.63;;
16977;SDS011;8605;52.548;4.918;2023-04-07T14:46:12;28.40;;;13.85;;
16977;SDS011;8605;52.548;4.918;2023-04-07T14:51:15;32.13;;;14.73;;
16977;SDS011;8605;52.548;4.918;2023-04-07T14:56:18;24.87;;;15.60;;
16977;SDS011;8605;52.548;4.918;2023-04-07T15:01:24;33.17;;;17.63;;
16977;SDS011;8605;52.548;4.918;2023-04-07T15:06:27;37.70;;;20.07;;
16977;SDS011;8605;52.548;4.918;2023-04-07T15:11:31;29.05;;;17.50;;
16977;SDS011;8605;52.548;4.918;2023-04-07T15:16:35;30.03;;;16.33;;
16977;SDS011;8605;52.548;4.918;2023-04-07T15:21:38;35.28;;;18.23;;
16977;SDS011;8605;52.548;4.918;2023-04-07T15:26:41;30.03;;;17.40;;
16977;SDS011;8605;52.548;4.918;2023-04-07T15:31:46;33.87;;;19.10;;
16977;SDS011;8605;52.548;4.918;2023-04-07T15:36:49;29.60;;;17.60;;
16977;SDS011;8605;52.548;4.918;2023-04-07T15:41:51;32.55;;;18.30;;
16977;SDS011;8605;52.548;4.918;2023-04-07T15:46:56;30.38;;;17.10;;
16977;SDS011;8605;52.548;4.918;2023-04-07T15:51:59;33.97;;;17.63;;
16977;SDS011;8605;52.548;4.918;2023-04-07T15:57:02;35.13;;;18.23;;
16977;SDS011;8605;52.548;4.918;2023-04-07T16:02:07;28.20;;;16.80;;
16977;SDS011;8605;52.548;4.918;2023-04-07T16:07:12;27.95;;;15.55;;
16977;SDS011;8605;52.548;4.918;2023-04-07T16:12:15;28.23;;;15.33;;
16977;SDS011;8605;52.548;4.918;2023-04-07T16:17:20;22.13;;;13.68;;
16977;SDS011;8605;52.548;4.918;2023-04-07T16:22:23;20.73;;;13.10;;
16977;SDS011;8605;52.548;4.918;2023-04-07T16:27:26;21.40;;;12.05;;
16977;SDS011;8605;52.548;4.918;2023-04-07T16:32:30;19.27;;;12.32;;
16977;SDS011;8605;52.548;4.918;2023-04-07T16:37:33;19.90;;;12.27;;
16977;SDS011;8605;52.548;4.918;2023-04-07T16:42:36;19.85;;;12.98;;
16977;SDS011;8605;52.548;4.918;2023-04-07T16:47:40;23.05;;;12.88;;
16977;SDS011;8605;52.548;4.918;2023-04-07T16:52:45;22.73;;;13.17;;
16977;SDS011;8605;52.548;4.918;2023-04-07T16:57:48;25.35;;;14.38;;
16977;SDS011;8605;52.548;4.918;2023-04-07T17:02:53;25.35;;;14.00;;
16977;SDS011;8605;52.548;4.918;2023-04-07T17:07:56;25.58;;;13.73;;
16977;SDS011;8605;52.548;4.918;2023-04-07T17:12:59;21.20;;;12.93;;
16977;SDS011;8605;52.548;4.918;2023-04-07T17:18:03;28.23;;;14.70;;
16977;SDS011;8605;52.548;4.918;2023-04-07T17:23:06;27.00;;;15.55;;
16977;SDS011;8605;52.548;4.918;2023-04-07T17:28:10;24.30;;;14.73;;
16977;SDS011;8605;52.548;4.918;2023-04-07T17:33:15;29.67;;;15.30;;
16977;SDS011;8605;52.548;4.918;2023-04-07T17:38:18;24.77;;;15.40;;
16977;SDS011;8605;52.548;4.918;2023-04-07T17:43:21;28.93;;;16.67;;
16977;SDS011;8605;52.548;4.918;2023-04-07T17:48:25;28.65;;;15.93;;
16977;SDS011;8605;52.548;4.918;2023-04-07T17:53:28;29.63;;;15.23;;
16977;SDS011;8605;52.548;4.918;2023-04-07T17:58:31;27.50;;;15.07;;
16977;SDS011;8605;52.548;4.918;2023-04-07T18:03:36;31.93;;;16.77;;
16977;SDS011;8605;52.548;4.918;2023-04-07T18:08:39;32.47;;;16.90;;
16977;SDS011;8605;52.548;4.918;2023-04-07T18:13:42;30.40;;;16.63;;
16977;SDS011;8605;52.548;4.918;2023-04-07T18:18:46;31.33;;;16.73;;
16977;SDS011;8605;52.548;4.918;2023-04-07T18:23:49;33.33;;;17.80;;
16977;SDS011;8605;52.548;4.918;2023-04-07T18:28:52;32.85;;;18.23;;
16977;SDS011;8605;52.548;4.918;2023-04-07T18:33:56;29.40;;;17.67;;
16977;SDS011;8605;52.548;4.918;2023-04-07T18:38:59;32.05;;;17.88;;
16977;SDS011;8605;52.548;4.918;2023-04-07T18:44:02;30.10;;;18.17;;
16977;SDS011;8605;52.548;4.918;2023-04-07T18:49:06;34.88;;;17.90;;
16977;SDS011;8605;52.548;4.918;2023-04-07T18:54:10;35.13;;;19.08;;
16977;SDS011;8605;52.548;4.918;2023-04-07T18:59:13;40.27;;;21.43;;
16977;SDS011;8605;52.548;4.918;2023-04-07T19:04:17;42.13;;;23.23;;
16977;SDS011;8605;52.548;4.918;2023-04-07T19:09:21;44.50;;;23.67;;
16977;SDS011;8605;52.548;4.918;2023-04-07T19:14:24;41.60;;;23.47;;
16977;SDS011;8605;52.548;4.918;2023-04-07T19:19:28;46.20;;;24.15;;
16977;SDS011;8605;52.548;4.918;2023-04-07T19:24:31;48.53;;;24.67;;
16977;SDS011;8605;52.548;4.918;2023-04-07T19:29:35;50.80;;;27.08;;
16977;SDS011;8605;52.548;4.918;2023-04-07T19:34:39;45.85;;;24.80;;
16977;SDS011;8605;52.548;4.918;2023-04-07T19:39:42;41.20;;;23.27;;
16977;SDS011;8605;52.548;4.918;2023-04-07T19:44:59;42.63;;;22.73;;
16977;SDS011;8605;52.548;4.918;2023-04-07T19:50:07;43.88;;;22.77;;
16977;SDS011;8605;52.548;4.918;2023-04-07T19:55:11;46.37;;;24.50;;
16977;SDS011;8605;52.548;4.918;2023-04-07T20:00:15;46.55;;;25.70;;
16977;SDS011;8605;52.548;4.918;2023-04-07T20:05:23;45.45;;;23.52;;
16977;SDS011;8605;52.548;4.918;2023-04-07T20:10:26;45.28;;;22.73;;
16977;SDS011;8605;52.548;4.918;2023-04-07T20:15:29;41.65;;;22.33;;
16977;SDS011;8605;52.548;4.918;2023-04-07T20:20:34;44.22;;;22.60;;
16977;SDS011;8605;52.548;4.918;2023-04-07T20:25:38;45.53;;;23.13;;
16977;SDS011;8605;52.548;4.918;2023-04-07T20:30:41;48.80;;;23.23;;
16977;SDS011;8605;52.548;4.918;2023-04-07T20:35:45;40.57;;;22.13;;
16977;SDS011;8605;52.548;4.918;2023-04-07T20:40:48;44.25;;;23.05;;
16977;SDS011;8605;52.548;4.918;2023-04-07T20:45:51;37.45;;;21.50;;
16977;SDS011;8605;52.548;4.918;2023-04-07T20:50:55;42.75;;;20.88;;
16977;SDS011;8605;52.548;4.918;2023-04-07T20:55:58;38.43;;;20.33;;
16977;SDS011;8605;52.548;4.918;2023-04-07T21:01:00;34.00;;;18.03;;
16977;SDS011;8605;52.548;4.918;2023-04-07T21:06:05;40.55;;;20.98;;
16977;SDS011;8605;52.548;4.918;2023-04-07T21:11:07;38.38;;;20.10;;
16977;SDS011;8605;52.548;4.918;2023-04-07T21:16:10;41.17;;;20.92;;
16977;SDS011;8605;52.548;4.918;2023-04-07T21:21:15;41.93;;;19.63;;
16977;SDS011;8605;52.548;4.918;2023-04-07T21:26:17;37.58;;;19.33;;
16977;SDS011;8605;52.548;4.918;2023-04-07T21:31:21;46.10;;;21.70;;
16977;SDS011;8605;52.548;4.918;2023-04-07T21:36:26;41.35;;;21.40;;
16977;SDS011;8605;52.548;4.918;2023-04-07T21:41:29;42.92;;;19.80;;
16977;SDS011;8605;52.548;4.918;2023-04-07T21:46:32;37.58;;;19.88;;
16977;SDS011;8605;52.548;4.918;2023-04-07T21:51:36;33.42;;;17.73;;
16977;SDS011;8605;52.548;4.918;2023-04-07T21:56:39;35.40;;;18.77;;
16977;SDS011;8605;52.548;4.918;2023-04-07T22:01:43;40.07;;;18.87;;
16977;SDS011;8605;52.548;4.918;2023-04-07T22:06:48;29.65;;;16.63;;
16977;SDS011;8605;52.548;4.918;2023-04-07T22:11:51;31.80;;;16.92;;
16977;SDS011;8605;52.548;4.918;2023-04-07T22:16:54;33.28;;;18.17;;
16977;SDS011;8605;52.548;4.918;2023-04-07T22:21:58;34.70;;;19.27;;
16977;SDS011;8605;52.548;4.918;2023-04-07T22:27:01;39.35;;;21.42;;
16977;SDS011;8605;52.548;4.918;2023-04-07T22:32:04;43.80;;;22.45;;
16977;SDS011;8605;52.548;4.918;2023-04-07T22:37:09;34.10;;;19.10;;
16977;SDS011;8605;52.548;4.918;2023-04-07T22:42:11;30.65;;;18.60;;
16977;SDS011;8605;52.548;4.918;2023-04-07T22:47:14;27.80;;;16.87;;
16977;SDS011;8605;52.548;4.918;2023-04-07T22:52:18;31.63;;;17.43;;
16977;SDS011;8605;52.548;4.918;2023-04-07T22:57:21;32.55;;;18.35;;
16977;SDS011;8605;52.548;4.918;2023-04-07T23:02:24;43.60;;;23.33;;
16977;SDS011;8605;52.548;4.918;2023-04-07T23:07:28;51.58;;;26.60;;
16977;SDS011;8605;52.548;4.918;2023-04-07T23:12:31;35.87;;;20.63;;
16977;SDS011;8605;52.548;4.918;2023-04-07T23:17:34;39.33;;;21.88;;
16977;SDS011;8605;52.548;4.918;2023-04-07T23:22:38;43.58;;;21.75;;
16977;SDS011;8605;52.548;4.918;2023-04-07T23:27:41;59.20;;;18.58;;
16977;SDS011;8605;52.548;4.918;2023-04-07T23:32:44;49.45;;;17.05;;
16977;SDS011;8605;52.548;4.918;2023-04-07T23:37:48;43.30;;;16.27;;
16977;SDS011;8605;52.548;4.918;2023-04-07T23:42:51;49.13;;;15.60;;
16977;SDS011;8605;52.548;4.918;2023-04-07T23:47:54;33.67;;;14.35;;
16977;SDS011;8605;52.548;4.918;2023-04-07T23:52:58;35.03;;;15.30;;
16977;SDS011;8605;52.548;4.918;2023-04-07T23:58:02;37.05;;;14.38;;
